Time;durP1;ratioP1;P1;durP2;ratioP2;P2;SDS_P1;SDS_P2;PMS_P1;PMS_P2;Temp;Humidity;BMP_temperature;BMP_pressure;BME280_temperature;BME280_humidity;BME280_pressure;Samples;Min_cycle;Max_cycle;Signal;HPM_P1;HPM_P2
2021/10/08 00:01:28;;;;;;;2.67;0.80;;;18.10;99.10;;;;;;5092265;28;20047;-77
2021/10/08 00:03:54;;;;;;;3.67;0.75;;;18.00;99.10;;;;;;5092243;28;20048;-77
2021/10/08 00:06:20;;;;;;;3.67;0.60;;;18.00;99.20;;;;;;5092121;28;20032;-76
2021/10/08 00:08:46;;;;;;;3.53;0.50;;;18.00;99.30;;;;;;5090882;28;20436;-74
2021/10/08 00:11:13;;;;;;;2.58;0.50;;;18.00;99.30;;;;;;5092130;28;20138;-76
2021/10/08 00:13:38;;;;;;;;;;;18.00;99.40;;;;;;5092707;28;20024;-76
2021/10/08 00:16:07;;;;;;;3.75;0.70;;;18.00;99.40;;;;;;5092064;28;19922;-78
2021/10/08 00:18:36;;;;;;;1.77;0.50;;;18.00;99.40;;;;;;5091147;28;20120;-77
2021/10/08 00:21:04;;;;;;;3.38;0.60;;;18.00;99.40;;;;;;5092133;28;20035;-76
2021/10/08 00:23:29;;;;;;;0.80;0.30;;;18.00;99.50;;;;;;5090751;28;20058;-77
2021/10/08 00:25:55;;;;;;;2.08;0.47;;;18.00;99.50;;;;;;5090758;28;20490;-78
2021/10/08 00:28:21;;;;;;;2.13;0.55;;;18.00;99.70;;;;;;5092227;28;20500;-77
2021/10/08 00:30:46;;;;;;;4.30;0.77;;;18.00;99.60;;;;;;5091321;28;20103;-79
2021/10/08 00:33:12;;;;;;;3.17;0.57;;;18.00;99.60;;;;;;5091885;28;20032;-77
2021/10/08 00:35:38;;;;;;;2.42;0.30;;;18.00;99.60;;;;;;5090535;28;20062;-78
2021/10/08 00:38:05;;;;;;;2.38;0.30;;;18.00;99.60;;;;;;5092046;28;20478;-77
2021/10/08 00:40:36;;;;;;;2.90;0.50;;;18.00;99.60;;;;;;5091820;28;20058;-76
2021/10/08 00:43:02;;;;;;;1.25;0.40;;;18.00;99.70;;;;;;5092225;28;20177;-75
2021/10/08 00:45:28;;;;;;;0.88;0.22;;;18.00;99.70;;;;;;5090470;28;20040;-80
2021/10/08 00:47:59;;;;;;;1.70;0.52;;;18.00;99.70;;;;;;5090903;28;20030;-78
2021/10/08 00:50:25;;;;;;;1.60;0.30;;;18.00;99.80;;;;;;5091682;28;20218;-79
2021/10/08 00:52:51;;;;;;;2.38;0.55;;;17.90;99.70;;;;;;5091239;28;20030;-79
2021/10/08 00:55:17;;;;;;;3.45;0.50;;;17.90;99.70;;;;;;5093025;28;20024;-78
2021/10/08 00:57:45;;;;;;;2.25;0.50;;;17.90;99.80;;;;;;5092328;28;20029;-77
2021/10/08 01:00:12;;;;;;;1.40;0.32;;;17.90;99.80;;;;;;5092132;28;20051;-79
2021/10/08 01:02:38;;;;;;;2.00;0.70;;;17.90;99.90;;;;;;5090505;28;20036;-75
2021/10/08 01:05:04;;;;;;;3.10;0.40;;;17.90;99.90;;;;;;5090372;28;20128;-76
2021/10/08 01:07:30;;;;;;;;;;;17.90;99.90;;;;;;5090764;28;20043;-78
2021/10/08 01:09:56;;;;;;;1.23;0.50;;;18.00;99.90;;;;;;5090319;28;19912;-77
2021/10/08 01:12:21;;;;;;;1.60;0.75;;;18.00;99.80;;;;;;5091269;28;20024;-75
2021/10/08 01:14:47;;;;;;;3.03;0.55;;;18.00;99.90;;;;;;5091236;28;20278;-75
2021/10/08 01:17:18;;;;;;;3.17;0.40;;;17.90;99.90;;;;;;5089951;28;20120;-78
2021/10/08 01:19:44;;;;;;;2.53;0.57;;;18.00;99.90;;;;;;5090024;28;20028;-78
2021/10/08 01:22:10;;;;;;;1.25;0.45;;;18.00;99.90;;;;;;5089937;28;20020;-77
2021/10/08 01:24:36;;;;;;;5.55;0.40;;;18.00;99.90;;;;;;5091237;28;20036;-75
2021/10/08 01:27:03;;;;;;;;;;;18.00;99.90;;;;;;5091665;28;20028;-76
2021/10/08 01:29:29;;;;;;;2.90;0.30;;;18.00;99.90;;;;;;5091594;28;20397;-76
2021/10/08 01:31:54;;;;;;;;;;;18.00;99.90;;;;;;5092106;28;20024;-78
2021/10/08 01:34:20;;;;;;;2.88;0.30;;;18.00;99.90;;;;;;5092099;28;19972;-75
2021/10/08 01:36:46;;;;;;;2.20;0.40;;;18.00;99.80;;;;;;5092029;28;20059;-76
2021/10/08 01:39:11;;;;;;;2.30;0.40;;;18.00;99.80;;;;;;5092236;28;20047;-77
2021/10/08 01:41:37;;;;;;;1.63;0.45;;;17.90;99.90;;;;;;5093379;28;20035;-75
2021/10/08 01:44:03;;;;;;;1.27;0.38;;;17.90;99.90;;;;;;5095972;28;20036;-75
2021/10/08 01:46:29;;;;;;;0.85;0.30;;;17.90;99.90;;;;;;5093891;28;20055;-76
2021/10/08 01:48:55;;;;;;;1.85;0.40;;;17.90;99.90;;;;;;5095921;28;20044;-77
2021/10/08 01:51:21;;;;;;;1.25;0.30;;;17.90;99.90;;;;;;5095376;28;20164;-78
2021/10/08 01:53:47;;;;;;;0.80;0.20;;;17.80;99.90;;;;;;5077709;28;20052;-75
2021/10/08 01:56:13;;;;;;;1.38;0.40;;;17.80;99.90;;;;;;5094961;28;20042;-75
2021/10/08 01:58:38;;;;;;;2.53;0.38;;;17.80;99.90;;;;;;5094676;28;20024;-78
2021/10/08 02:01:04;;;;;;;0.85;0.30;;;17.80;99.90;;;;;;5093262;28;20036;-77
2021/10/08 02:03:30;;;;;;;1.20;0.40;;;17.80;99.90;;;;;;5076408;28;20032;-79
2021/10/08 02:05:55;;;;;;;2.95;0.55;;;17.70;99.90;;;;;;5094438;28;20036;-76
2021/10/08 02:08:21;;;;;;;1.30;0.20;;;17.70;99.90;;;;;;5094480;28;20020;-75
2021/10/08 02:10:47;;;;;;;1.60;0.40;;;17.70;99.90;;;;;;5093021;28;20032;-76
2021/10/08 02:13:13;;;;;;;1.00;0.30;;;17.70;99.90;;;;;;5093351;28;20134;-76
2021/10/08 02:15:38;;;;;;;3.53;0.30;;;17.70;99.90;;;;;;5076535;28;20081;-77
2021/10/08 02:18:04;;;;;;;0.75;0.20;;;17.60;99.90;;;;;;5093220;28;20038;-75
2021/10/08 02:20:30;;;;;;;1.88;0.55;;;17.60;99.90;;;;;;5094625;28;20390;-76
2021/10/08 02:22:55;;;;;;;1.02;0.40;;;17.60;99.90;;;;;;5094817;28;20099;-76
2021/10/08 02:25:21;;;;;;;2.20;0.32;;;17.60;99.90;;;;;;5093230;28;20047;-78
2021/10/08 02:27:47;;;;;;;1.08;0.40;;;17.60;99.90;;;;;;5093078;28;20032;-76
2021/10/08 02:30:13;;;;;;;0.55;0.13;;;17.60;99.90;;;;;;5094241;28;20036;-78
2021/10/08 02:32:39;;;;;;;;;;;17.60;99.90;;;;;;5093596;28;20106;-80
2021/10/08 02:35:05;;;;;;;1.15;0.30;;;17.60;99.90;;;;;;5093666;28;19970;-80
2021/10/08 02:37:31;;;;;;;;;;;17.60;99.90;;;;;;5093963;28;20474;-78
2021/10/08 02:39:57;;;;;;;1.02;0.30;;;17.60;99.90;;;;;;5093525;28;19919;-78
2021/10/08 02:42:22;;;;;;;;;;;17.60;99.90;;;;;;5094853;28;20178;-77
2021/10/08 02:44:48;;;;;;;2.10;0.38;;;17.60;99.90;;;;;;5094276;28;20000;-76
2021/10/08 02:47:14;;;;;;;2.13;0.40;;;17.60;99.90;;;;;;5075800;28;20036;-77
2021/10/08 02:49:40;;;;;;;2.17;0.40;;;17.60;99.90;;;;;;5093842;28;20035;-77
2021/10/08 02:52:06;;;;;;;1.77;0.50;;;17.60;99.90;;;;;;5091917;28;20117;-78
2021/10/08 02:54:32;;;;;;;2.70;0.93;;;17.60;99.90;;;;;;5093863;28;20127;-80
2021/10/08 02:56:58;;;;;;;4.05;0.73;;;17.70;99.90;;;;;;5076113;28;20127;-74
2021/10/08 02:59:23;;;;;;;2.22;0.50;;;17.70;99.90;;;;;;5092762;28;20063;-75
2021/10/08 03:01:49;;;;;;;3.63;0.80;;;17.70;99.90;;;;;;5092749;28;20040;-78
2021/10/08 03:04:15;;;;;;;4.20;0.73;;;17.70;99.90;;;;;;5092684;28;20042;-78
2021/10/08 03:06:41;;;;;;;3.53;0.90;;;17.70;99.90;;;;;;5093534;28;20421;-76
2021/10/08 03:09:07;;;;;;;5.75;1.00;;;17.70;99.90;;;;;;5093745;28;20483;-78
2021/10/08 03:11:33;;;;;;;6.72;1.20;;;17.70;99.90;;;;;;5075711;28;20474;-77
2021/10/08 03:13:58;;;;;;;4.88;1.10;;;17.60;99.90;;;;;;5093545;28;20033;-78
2021/10/08 03:16:24;;;;;;;4.35;1.23;;;17.60;99.90;;;;;;5092411;28;20027;-75
2021/10/08 03:18:51;;;;;;;5.38;1.60;;;17.60;99.90;;;;;;5092509;28;20032;-78
2021/10/08 03:21:16;;;;;;;4.32;1.02;;;17.60;99.90;;;;;;5093804;28;20107;-76
2021/10/08 03:23:42;;;;;;;3.90;1.20;;;17.60;99.90;;;;;;5093602;28;20103;-79
2021/10/08 03:26:08;;;;;;;7.80;1.10;;;17.60;99.90;;;;;;5075329;28;20040;-75
2021/10/08 03:28:35;;;;;;;4.57;1.50;;;17.60;99.90;;;;;;5093593;28;20409;-75
2021/10/08 03:31:00;;;;;;;6.75;1.30;;;17.50;99.90;;;;;;5092646;28;20024;-75
2021/10/08 03:33:26;;;;;;;6.32;1.30;;;17.50;99.90;;;;;;5093837;28;20070;-75
2021/10/08 03:35:52;;;;;;;6.15;1.63;;;17.50;99.90;;;;;;5075614;28;20039;-77
2021/10/08 03:38:19;;;;;;;6.75;1.30;;;17.50;99.90;;;;;;5092415;28;20039;-76
2021/10/08 03:41:20;;;;;;;5.20;1.30;;;17.50;99.90;;;;;;5075304;28;20058;-76
2021/10/08 03:43:40;;;;;;;6.72;1.85;;;17.50;99.90;;;;;;5090456;28;20487;-79
2021/10/08 03:46:08;;;;;;;7.38;1.40;;;17.40;99.90;;;;;;5091382;28;20131;-77
2021/10/08 03:48:58;;;;;;;6.45;1.40;;;17.40;99.90;;;;;;5092868;28;20049;-80
2021/10/08 03:51:22;;;;;;;8.13;1.38;;;17.40;99.90;;;;;;5092301;28;20032;-75
2021/10/08 03:53:48;;;;;;;4.10;1.17;;;17.30;99.90;;;;;;5091294;28;20043;-76
2021/10/08 03:56:13;;;;;;;5.30;1.33;;;17.30;99.90;;;;;;5092670;28;20389;-77
2021/10/08 03:58:39;;;;;;;4.55;1.10;;;17.30;99.90;;;;;;5057739;28;20031;-79
2021/10/08 04:01:05;;;;;;;6.00;1.10;;;17.30;99.90;;;;;;5092347;28;20103;-77
2021/10/08 04:03:31;;;;;;;4.25;1.30;;;17.30;99.90;;;;;;5092423;28;20028;-77
2021/10/08 04:05:56;;;;;;;6.38;1.33;;;17.30;99.90;;;;;;5092461;28;20054;-76
2021/10/08 04:08:22;;;;;;;4.65;1.08;;;17.30;99.90;;;;;;5090963;28;20355;-79
2021/10/08 04:10:48;;;;;;;7.03;1.50;;;17.30;99.90;;;;;;5092296;28;20050;-75
2021/10/08 04:13:13;;;;;;;4.28;1.58;;;17.30;99.90;;;;;;5092569;28;20075;-79
2021/10/08 04:15:39;;;;;;;5.32;1.20;;;17.30;99.90;;;;;;5091184;28;20491;-80
2021/10/08 04:18:05;;;;;;;9.07;1.40;;;17.30;99.90;;;;;;5090913;28;20130;-76
2021/10/08 04:20:30;;;;;;;4.03;1.10;;;17.30;99.90;;;;;;5092123;28;20036;-76
2021/10/08 04:22:56;;;;;;;4.30;1.48;;;17.30;99.90;;;;;;5091050;28;20043;-78
2021/10/08 04:25:22;;;;;;;7.18;1.60;;;17.30;99.90;;;;;;5092255;28;20039;-76
2021/10/08 04:27:48;;;;;;;;;;;17.20;99.90;;;;;;5092398;28;20474;-78
2021/10/08 04:30:14;;;;;;;5.05;1.42;;;17.30;99.90;;;;;;5074107;28;19934;-80
2021/10/08 04:32:40;;;;;;;8.90;1.85;;;17.20;99.90;;;;;;5092075;28;20423;-80
2021/10/08 04:35:06;;;;;;;6.07;1.60;;;17.30;99.90;;;;;;5091972;28;20103;-78
2021/10/08 04:37:31;;;;;;;7.00;1.88;;;17.20;99.90;;;;;;5091877;28;20032;-77
2021/10/08 04:39:57;;;;;;;6.65;1.45;;;17.30;99.90;;;;;;5090727;28;20035;-76
2021/10/08 04:42:23;;;;;;;12.48;1.98;;;17.30;99.90;;;;;;5091773;28;20028;-79
2021/10/08 04:44:49;;;;;;;8.55;1.88;;;17.30;99.90;;;;;;5091608;28;20028;-76
2021/10/08 04:47:14;;;;;;;10.10;2.28;;;17.30;99.90;;;;;;5090499;28;20038;-77
2021/10/08 04:49:41;;;;;;;7.50;1.70;;;17.30;99.90;;;;;;5091069;28;20028;-76
2021/10/08 04:52:09;;;;;;;7.97;2.33;;;17.30;99.90;;;;;;5090616;28;20020;-77
2021/10/08 04:54:35;;;;;;;8.95;2.58;;;17.30;99.90;;;;;;5090534;28;20020;-80
2021/10/08 04:57:00;;;;;;;9.57;1.80;;;17.30;99.80;;;;;;5091818;28;20028;-76
2021/10/08 04:59:26;;;;;;;10.38;2.03;;;17.30;99.70;;;;;;5090400;28;20228;-76
2021/10/08 05:01:52;;;;;;;9.98;2.08;;;17.30;99.70;;;;;;5090435;28;20043;-76
2021/10/08 05:04:17;;;;;;;11.13;1.95;;;17.30;99.70;;;;;;5091805;28;20035;-75
2021/10/08 05:06:43;;;;;;;9.82;2.20;;;17.30;99.60;;;;;;5092363;28;20521;-78
2021/10/08 05:09:09;;;;;;;7.68;2.50;;;17.30;99.60;;;;;;5091709;28;20382;-74
2021/10/08 05:11:34;;;;;;;8.38;2.25;;;17.30;99.50;;;;;;5090605;28;20043;-79
2021/10/08 05:14:00;;;;;;;14.20;2.45;;;17.30;99.50;;;;;;5091637;28;20359;-74
2021/10/08 05:16:26;;;;;;;11.20;2.50;;;17.30;99.50;;;;;;5093754;28;20028;-77
2021/10/08 05:18:52;;;;;;;15.60;2.50;;;17.30;99.50;;;;;;5095932;28;20115;-75
2021/10/08 05:21:18;;;;;;;11.23;2.10;;;17.40;99.50;;;;;;5077410;28;20386;-74
2021/10/08 05:23:44;;;;;;;;;;;17.40;99.40;;;;;;5096136;28;20024;-78
2021/10/08 05:26:09;;;;;;;11.30;2.20;;;17.40;99.40;;;;;;5095054;28;19908;-79
2021/10/08 05:28:35;;;;;;;10.45;2.28;;;17.40;99.30;;;;;;5094018;28;20062;-79
2021/10/08 05:31:01;;;;;;;8.93;2.08;;;17.40;99.30;;;;;;5094161;28;20218;-80
2021/10/08 05:33:26;;;;;;;9.70;2.20;;;17.40;99.30;;;;;;5095133;28;20044;-78
2021/10/08 05:35:52;;;;;;;18.75;3.80;;;17.40;99.30;;;;;;5095296;28;20028;-75
2021/10/08 05:38:18;;;;;;;14.20;2.45;;;17.40;99.30;;;;;;5095659;28;20032;-77
2021/10/08 05:40:47;;;;;;;11.88;2.40;;;17.40;99.20;;;;;;5095643;28;20486;-76
2021/10/08 05:43:14;;;;;;;11.23;2.50;;;17.30;99.10;;;;;;5095324;28;20032;-78
2021/10/08 05:45:40;;;;;;;16.85;2.67;;;17.40;99.20;;;;;;5095509;28;20257;-75
2021/10/08 05:48:05;;;;;;;;;;;17.40;99.10;;;;;;5097137;28;20036;-78
2021/10/08 05:50:32;;;;;;;12.05;2.95;;;17.40;99.20;;;;;;5095667;28;19998;-75
2021/10/08 05:52:58;;;;;;;11.38;2.78;;;17.40;99.10;;;;;;5096260;28;20480;-78
2021/10/08 05:55:24;;;;;;;13.57;2.65;;;17.40;99.10;;;;;;5096621;28;20055;-77
2021/10/08 05:57:50;;;;;;;11.27;2.50;;;17.40;99.00;;;;;;5077188;28;20171;-77
2021/10/08 06:00:15;;;;;;;12.15;2.40;;;17.40;99.00;;;;;;5095434;28;20491;-75
2021/10/08 06:02:41;;;;;;;17.52;2.67;;;17.40;99.00;;;;;;5095415;28;20391;-77
2021/10/08 06:05:07;;;;;;;15.65;2.88;;;17.40;99.00;;;;;;5093924;28;20203;-81
2021/10/08 06:07:33;;;;;;;;;;;17.50;99.00;;;;;;5094695;28;20040;-78
2021/10/08 06:09:59;;;;;;;12.52;2.38;;;17.40;99.00;;;;;;5093418;28;20061;-75
2021/10/08 06:12:24;;;;;;;16.05;2.92;;;17.50;98.90;;;;;;5093526;28;20191;-76
2021/10/08 06:14:50;;;;;;;13.27;3.15;;;17.50;98.90;;;;;;5094868;28;20051;-77
2021/10/08 06:17:16;;;;;;;10.25;2.78;;;17.40;98.90;;;;;;5093092;28;20162;-76
2021/10/08 06:19:42;;;;;;;16.65;2.83;;;17.40;98.90;;;;;;5094692;28;20119;-77
2021/10/08 06:22:08;;;;;;;;;;;17.50;99.00;;;;;;5095129;28;20390;-78
2021/10/08 06:24:34;;;;;;;8.43;2.72;;;17.50;99.00;;;;;;5093554;28;20049;-78
2021/10/08 06:27:00;;;;;;;;;;;17.50;98.90;;;;;;5092534;28;20170;-75
2021/10/08 06:29:25;;;;;;;15.20;2.30;;;17.50;99.00;;;;;;5094398;28;19945;-80
2021/10/08 06:31:51;;;;;;;14.65;2.53;;;17.50;98.80;;;;;;5076818;28;20024;-76
2021/10/08 06:34:17;;;;;;;17.63;2.83;;;17.50;98.80;;;;;;5094896;28;20068;-76
2021/10/08 06:36:42;;;;;;;16.08;2.55;;;17.50;98.80;;;;;;5093657;28;20036;-77
2021/10/08 06:39:08;;;;;;;15.50;3.00;;;17.50;98.80;;;;;;5092763;28;20470;-76
2021/10/08 06:41:34;;;;;;;13.82;3.42;;;17.50;98.80;;;;;;5075972;28;20024;-80
2021/10/08 06:44:00;;;;;;;12.55;1.95;;;17.50;98.80;;;;;;5092679;28;20064;-78
2021/10/08 06:46:25;;;;;;;12.15;2.13;;;17.40;98.70;;;;;;5092728;28;20040;-77
2021/10/08 06:48:51;;;;;;;11.73;2.38;;;17.50;98.70;;;;;;5076766;28;20036;-78
2021/10/08 06:51:17;;;;;;;13.85;2.80;;;17.40;98.60;;;;;;5075991;28;20093;-79
2021/10/08 06:53:43;;;;;;;11.90;2.40;;;17.50;98.70;;;;;;5094362;28;20300;-80
2021/10/08 06:56:08;;;;;;;12.18;2.95;;;17.50;98.60;;;;;;5094733;28;20036;-76
2021/10/08 06:58:34;;;;;;;16.80;3.38;;;17.50;98.70;;;;;;5093482;28;20063;-77
2021/10/08 07:01:00;;;;;;;14.15;3.08;;;17.50;98.50;;;;;;5093407;28;20051;-78
2021/10/08 07:03:26;;;;;;;13.75;2.20;;;17.50;98.50;;;;;;5093464;28;20038;-76
2021/10/08 07:05:52;;;;;;;11.07;2.22;;;17.50;98.40;;;;;;5093418;28;20075;-76
2021/10/08 07:08:17;;;;;;;;;;;17.50;98.40;;;;;;5092896;28;20028;-77
2021/10/08 07:10:43;;;;;;;17.30;3.20;;;17.50;98.30;;;;;;5093663;28;20031;-78
2021/10/08 07:13:10;;;;;;;;;;;17.50;98.20;;;;;;5093986;28;20027;-78
2021/10/08 07:15:36;;;;;;;12.25;2.30;;;17.50;98.30;;;;;;5093502;28;19912;-77
2021/10/08 07:18:02;;;;;;;15.65;2.65;;;17.50;98.10;;;;;;5093139;28;20379;-77
2021/10/08 07:20:29;;;;;;;16.55;3.45;;;17.50;98.10;;;;;;5092898;28;20047;-78
2021/10/08 07:22:57;;;;;;;16.08;2.70;;;17.50;98.10;;;;;;5091682;28;20059;-82
2021/10/08 07:25:26;;;;;;;16.42;3.45;;;17.50;98.10;;;;;;5092650;28;20032;-77
2021/10/08 07:27:52;;;;;;;14.15;2.35;;;17.50;98.00;;;;;;5093385;28;20016;-77
2021/10/08 07:30:19;;;;;;;16.55;2.97;;;17.50;98.00;;;;;;5092388;28;20381;-79
2021/10/08 07:32:46;;;;;;;15.15;2.55;;;17.50;98.00;;;;;;5092355;28;20094;-75
2021/10/08 07:35:12;;;;;;;11.45;2.47;;;17.50;97.90;;;;;;5092943;28;20528;-80
2021/10/08 07:37:39;;;;;;;15.85;2.80;;;17.50;97.90;;;;;;5093289;28;20073;-77
2021/10/08 07:40:09;;;;;;;11.57;2.67;;;17.40;97.90;;;;;;5074162;28;20020;-80
2021/10/08 07:42:35;;;;;;;11.95;2.95;;;17.40;97.90;;;;;;5091785;28;20024;-78
2021/10/08 07:45:06;;;;;;;10.05;2.13;;;17.40;97.90;;;;;;5091008;28;20081;-78
2021/10/08 07:47:32;;;;;;;12.88;2.55;;;17.50;97.90;;;;;;5092417;28;20119;-78
2021/10/08 07:49:59;;;;;;;13.40;2.58;;;17.50;97.80;;;;;;5091480;28;20520;-81
2021/10/08 07:52:24;;;;;;;12.32;3.03;;;17.60;97.80;;;;;;5091221;28;20078;-80
2021/10/08 07:54:50;;;;;;;10.98;2.50;;;17.70;97.80;;;;;;5093360;28;20458;-79
2021/10/08 07:57:16;;;;;;;14.63;2.50;;;17.70;97.70;;;;;;5092126;28;20115;-78
2021/10/08 07:59:41;;;;;;;15.27;2.50;;;17.80;97.60;;;;;;5091294;28;20031;-79
2021/10/08 08:02:08;;;;;;;14.93;2.85;;;17.90;97.50;;;;;;5090847;28;20398;-80
2021/10/08 08:04:35;;;;;;;13.00;2.10;;;18.00;97.30;;;;;;5090796;28;20036;-78
2021/10/08 08:07:00;;;;;;;13.30;2.40;;;18.00;97.10;;;;;;5092055;28;20024;-77
2021/10/08 08:09:26;;;;;;;15.85;2.50;;;18.00;97.00;;;;;;5091152;28;20411;-78
2021/10/08 08:11:52;;;;;;;10.80;2.08;;;18.00;97.00;;;;;;5091910;28;20503;-78
2021/10/08 08:14:18;;;;;;;9.68;2.33;;;18.00;96.90;;;;;;5090459;28;20024;-79
2021/10/08 08:16:44;;;;;;;8.93;2.20;;;18.00;96.90;;;;;;5092302;28;20036;-77
2021/10/08 08:19:11;;;;;;;17.45;3.30;;;18.00;96.80;;;;;;5091807;28;20032;-77
2021/10/08 08:21:37;;;;;;;13.23;2.17;;;18.10;96.70;;;;;;5090732;28;20510;-78
2021/10/08 08:24:03;;;;;;;9.32;2.33;;;18.10;96.70;;;;;;5057451;28;20097;-79
2021/10/08 08:26:28;;;;;;;16.95;2.92;;;18.20;96.60;;;;;;5092062;28;20535;-78
2021/10/08 08:28:54;;;;;;;29.90;13.15;;;18.20;96.50;;;;;;5092883;28;20127;-77
2021/10/08 08:31:20;;;;;;;14.23;3.70;;;18.30;96.50;;;;;;5091388;28;20420;-80
2021/10/08 08:33:46;;;;;;;11.52;2.67;;;18.40;96.40;;;;;;5090994;28;20035;-79
2021/10/08 08:36:11;;;;;;;8.10;2.20;;;18.50;96.20;;;;;;5090518;28;20040;-79
2021/10/08 08:38:37;;;;;;;15.48;2.30;;;18.60;96.10;;;;;;5090981;28;20085;-78
2021/10/08 08:41:03;;;;;;;13.85;2.42;;;18.60;95.90;;;;;;5089724;28;20271;-78
2021/10/08 08:43:29;;;;;;;12.18;2.30;;;18.70;95.60;;;;;;5090724;28;20028;-79
2021/10/08 08:45:56;;;;;;;15.02;2.58;;;18.70;95.50;;;;;;5089339;28;20048;-75
2021/10/08 08:48:22;;;;;;;8.30;1.98;;;18.70;95.30;;;;;;5090921;28;20065;-76
2021/10/08 08:50:48;;;;;;;9.20;1.73;;;18.70;95.30;;;;;;5089886;28;20056;-79
2021/10/08 08:53:16;;;;;;;12.43;2.40;;;18.70;95.30;;;;;;5072646;28;20024;-79
2021/10/08 08:55:42;;;;;;;14.80;3.42;;;18.70;95.10;;;;;;5090517;28;20036;-77
2021/10/08 08:58:08;;;;;;;11.25;2.38;;;18.70;95.10;;;;;;5089277;28;20028;-77
2021/10/08 09:00:34;;;;;;;11.73;2.35;;;18.80;95.10;;;;;;5089678;28;20047;-80
2021/10/08 09:03:02;;;;;;;10.57;2.35;;;18.80;95.00;;;;;;5091341;28;20214;-81
2021/10/08 09:05:33;;;;;;;12.88;2.20;;;18.90;94.80;;;;;;5089878;28;20036;-78
2021/10/08 09:08:06;;;;;;;11.30;2.20;;;18.90;94.70;;;;;;5089813;28;20028;-77
2021/10/08 09:10:34;;;;;;;12.65;2.17;;;18.90;94.50;;;;;;5090047;28;20038;-81
2021/10/08 09:13:00;;;;;;;10.43;2.10;;;18.80;94.50;;;;;;5090359;28;20074;-80
2021/10/08 09:15:43;;;;;;;14.88;3.30;;;18.90;94.50;;;;;;5090927;28;20020;-78
2021/10/08 09:18:10;;;;;;;21.27;6.60;;;19.00;94.60;;;;;;5089533;28;20054;-79
2021/10/08 09:20:37;;;;;;;12.95;2.30;;;19.00;94.30;;;;;;5091770;28;20075;-78
2021/10/08 09:23:04;;;;;;;6.63;1.80;;;19.10;94.20;;;;;;5093132;28;20714;-78
2021/10/08 09:25:38;;;;;;;11.85;2.28;;;19.10;93.90;;;;;;5094360;28;20028;-78
2021/10/08 09:28:07;;;;;;;11.50;3.38;;;19.10;93.80;;;;;;5094597;28;20024;-78
2021/10/08 09:30:48;;;;;;;11.27;2.53;;;19.20;93.90;;;;;;5091487;28;20077;-79
2021/10/08 09:33:16;;;;;;;10.32;1.90;;;19.30;93.70;;;;;;5094969;28;20024;-77
2021/10/08 09:35:44;;;;;;;12.23;2.10;;;19.30;93.60;;;;;;5094207;28;20024;-76
2021/10/08 09:38:13;;;;;;;10.68;2.22;;;19.40;93.50;;;;;;5094470;28;20024;-76
2021/10/08 09:40:50;;;;;;;12.75;2.10;;;19.40;93.30;;;;;;5109165;28;20055;-78
2021/10/08 09:43:27;;;;;;;14.45;2.33;;;19.40;93.30;;;;;;5111917;28;20077;-79
2021/10/08 09:46:01;;;;;;;16.58;2.42;;;19.50;93.30;;;;;;5103656;28;20040;-79
2021/10/08 09:48:43;;;;;;;12.32;2.85;;;19.60;93.00;;;;;;5105186;28;20017;-77
2021/10/08 09:51:17;;;;;;;10.15;2.60;;;19.60;92.90;;;;;;5108652;28;20549;-79
2021/10/08 09:53:46;;;;;;;12.27;3.00;;;19.60;92.90;;;;;;5097360;28;20030;-75
2021/10/08 09:56:36;;;;;;;16.88;3.35;;;19.70;92.80;;;;;;5110344;28;20023;-78
2021/10/08 09:59:07;;;;;;;12.25;2.45;;;19.70;92.80;;;;;;5101155;28;20020;-78
2021/10/08 10:01:35;;;;;;;7.55;1.98;;;19.70;92.70;;;;;;5096548;28;20056;-76
2021/10/08 10:04:03;;;;;;;11.20;3.03;;;19.70;92.60;;;;;;5095250;28;20556;-79
2021/10/08 10:06:29;;;;;;;9.75;1.85;;;19.70;92.60;;;;;;5094692;28;20031;-81
2021/10/08 10:08:55;;;;;;;;;;;19.70;92.50;;;;;;5095745;28;20024;-78
2021/10/08 10:11:23;;;;;;;7.85;2.15;;;19.70;92.60;;;;;;5096312;28;20373;-78
2021/10/08 10:13:52;;;;;;;6.68;1.70;;;19.70;92.60;;;;;;5094731;28;20463;-77
2021/10/08 10:16:18;;;;;;;8.95;1.73;;;19.60;92.60;;;;;;5095249;28;20043;-77
2021/10/08 10:18:48;;;;;;;12.13;2.80;;;19.60;92.40;;;;;;5094906;28;20032;-75
2021/10/08 10:21:18;;;;;;;12.00;3.28;;;19.60;92.30;;;;;;5094982;28;20029;-78
2021/10/08 10:23:45;;;;;;;9.02;2.10;;;19.60;92.40;;;;;;5096075;28;20039;-78
2021/10/08 10:26:11;;;;;;;10.13;2.40;;;19.60;92.40;;;;;;5095971;28;20450;-77
2021/10/08 10:28:37;;;;;;;12.43;2.25;;;19.70;92.50;;;;;;5095614;28;20036;-77
2021/10/08 10:31:05;;;;;;;9.25;2.30;;;19.80;92.40;;;;;;5095559;28;20373;-77
2021/10/08 10:33:31;;;;;;;13.88;2.58;;;19.90;92.20;;;;;;5095609;28;20027;-79
2021/10/08 10:36:02;;;;;;;15.48;3.13;;;20.00;92.30;;;;;;5061154;28;20474;-78
2021/10/08 10:38:35;;;;;;;10.63;1.98;;;20.10;92.10;;;;;;5099910;28;20036;-76
2021/10/08 10:41:09;;;;;;;13.25;3.53;;;20.20;91.50;;;;;;5095651;28;20035;-78
2021/10/08 10:43:43;;;;;;;5.70;1.58;;;20.20;91.50;;;;;;5094956;28;20024;-78
2021/10/08 10:52:11;;;;;;;10.38;2.00;;;20.30;90.90;;;;;;5095928;28;20028;-77
2021/10/08 10:54:59;;;;;;;10.80;2.22;;;20.30;90.50;;;;;;5092166;28;20036;-78
2021/10/08 10:57:29;;;;;;;8.35;2.33;;;20.30;90.30;;;;;;5094226;28;20024;-80
2021/10/08 11:00:33;;;;;;;10.20;2.08;;;20.30;90.30;;;;;;5098534;28;20092;-79
2021/10/08 11:03:00;;;;;;;9.27;1.70;;;20.20;90.10;;;;;;5094700;28;20043;-76
2021/10/08 11:05:27;;;;;;;8.07;2.08;;;20.20;90.10;;;;;;5094538;28;20020;-76
2021/10/08 11:08:11;;;;;;;7.80;1.77;;;20.10;90.10;;;;;;5097466;28;20136;-78
2021/10/08 11:10:59;;;;;;;10.57;1.50;;;20.10;90.20;;;;;;5107207;28;20032;-77
2021/10/08 11:13:29;;;;;;;13.45;2.67;;;20.10;90.10;;;;;;5105430;28;20061;-77
2021/10/08 11:15:56;;;;;;;10.55;2.42;;;20.10;90.00;;;;;;5113530;28;20039;-78
2021/10/08 11:18:40;;;;;;;12.15;1.85;;;20.10;90.00;;;;;;5114369;28;20468;-76
2021/10/08 11:21:07;;;;;;;9.90;2.20;;;20.10;89.50;;;;;;5098010;28;20059;-77
2021/10/08 11:23:36;;;;;;;9.02;1.55;;;20.10;89.60;;;;;;5115308;28;20023;-76
2021/10/08 11:26:06;;;;;;;9.18;2.17;;;20.10;89.30;;;;;;5098126;28;20035;-79
2021/10/08 11:28:37;;;;;;;7.45;1.77;;;20.30;88.70;;;;;;5113921;28;20027;-78
2021/10/08 11:31:04;;;;;;;11.27;2.70;;;20.20;88.60;;;;;;5115489;28;20034;-78
2021/10/08 11:33:33;;;;;;;15.88;2.95;;;20.30;88.80;;;;;;5116455;28;20023;-77
2021/10/08 11:35:58;;;;;;;10.15;1.67;;;20.30;88.30;;;;;;5114866;28;20442;-82
2021/10/08 11:38:24;;;;;;;;;;;20.40;88.30;;;;;;5096806;28;20042;-76
2021/10/08 11:40:50;;;;;;;6.93;1.70;;;20.40;88.40;;;;;;5113048;28;19953;-76
2021/10/08 11:43:27;;;;;;;;;;;20.40;88.20;;;;;;5114622;28;20031;-77
2021/10/08 11:48:28;;;;;;;11.18;2.28;;;20.30;87.50;;;;;;5115095;28;20040;-78
2021/10/08 11:51:03;;;;;;;8.18;1.70;;;20.30;87.10;;;;;;5113298;28;20027;-82
2021/10/08 11:53:52;;;;;;;6.75;1.95;;;20.20;86.70;;;;;;5112744;28;20138;-79
2021/10/08 11:56:27;;;;;;;10.57;3.50;;;20.10;87.20;;;;;;5114739;28;20049;-80
2021/10/08 11:58:59;;;;;;;9.20;2.65;;;20.20;87.40;;;;;;5115691;27;20020;-77
2021/10/08 12:01:26;;;;;;;8.77;3.47;;;20.30;87.50;;;;;;5114356;28;20026;-71
2021/10/08 12:03:53;;;;;;;9.93;1.92;;;20.30;87.30;;;;;;5113845;28;20032;-75
2021/10/08 12:06:30;;;;;;;11.23;2.35;;;20.30;87.10;;;;;;5113924;28;20028;-78
2021/10/08 12:08:58;;;;;;;9.57;3.00;;;20.30;87.00;;;;;;5114148;28;20073;-77
2021/10/08 12:11:27;;;;;;;16.83;4.10;;;20.40;87.20;;;;;;5112372;28;20020;-77
2021/10/08 12:13:58;;;;;;;13.63;2.50;;;20.40;86.60;;;;;;5112904;28;20024;-78
2021/10/08 12:16:42;;;;;;;10.63;2.22;;;20.50;86.60;;;;;;5114037;28;20111;-78
2021/10/08 12:19:10;;;;;;;9.43;1.98;;;20.60;86.90;;;;;;5113807;28;20426;-78
2021/10/08 12:21:39;;;;;;;8.57;2.17;;;20.70;86.80;;;;;;5105265;28;20152;-77
2021/10/08 12:24:13;;;;;;;6.53;1.77;;;20.90;86.50;;;;;;5091844;28;20052;-78
2021/10/08 12:26:42;;;;;;;14.30;3.28;;;21.10;86.20;;;;;;5093891;28;20107;-77
2021/10/08 12:29:10;;;;;;;5.68;1.50;;;21.20;85.60;;;;;;5093405;28;20039;-76
2021/10/08 12:31:48;;;;;;;10.90;2.40;;;21.30;85.00;;;;;;5091334;28;20438;-75
2021/10/08 12:34:31;;;;;;;10.70;2.42;;;21.40;84.90;;;;;;5092912;28;20105;-77
2021/10/08 12:37:04;;;;;;;7.65;1.60;;;21.50;84.50;;;;;;5096745;28;20047;-76
2021/10/08 12:39:34;;;;;;;6.07;1.33;;;21.70;84.10;;;;;;5103091;28;20038;-78
2021/10/08 12:42:17;;;;;;;10.23;1.73;;;21.70;83.20;;;;;;5078751;28;20059;-75
2021/10/08 12:45:00;;;;;;;7.13;1.40;;;21.80;82.80;;;;;;5101084;28;20054;-76
2021/10/08 12:47:47;;;;;;;12.38;1.67;;;21.80;81.70;;;;;;5099610;28;20051;-77
2021/10/08 12:50:22;;;;;;;6.15;1.33;;;21.70;81.40;;;;;;5093089;28;20063;-77
2021/10/08 12:52:50;;;;;;;7.87;1.30;;;21.70;80.90;;;;;;5104903;28;20469;-75
2021/10/08 12:55:25;;;;;;;7.90;1.60;;;21.70;81.10;;;;;;5101613;28;20024;-76
2021/10/08 12:58:07;;;;;;;8.18;1.70;;;21.60;80.80;;;;;;5101687;28;20030;-76
2021/10/08 13:00:43;;;;;;;10.98;2.30;;;21.60;81.00;;;;;;5099848;28;20016;-76